createdAt,value
2017-08-28T00:00:02.309Z,5.68
2017-08-28T00:02:31.167Z,6.05
2017-08-28T00:05:00.031Z,5.85
2017-08-28T00:07:30.597Z,5.97
2017-08-28T00:09:59.502Z,6.65
2017-08-28T00:12:28.905Z,5.82
2017-08-28T00:14:57.759Z,5.53
2017-08-28T00:17:26.579Z,6.60
2017-08-28T00:19:56.253Z,4.70
2017-08-28T00:22:25.060Z,5.95
2017-08-28T00:24:53.910Z,5.60
2017-08-28T00:27:22.729Z,5.15
2017-08-28T00:29:51.542Z,5.70
2017-08-28T00:32:20.361Z,5.45
2017-08-28T00:34:49.215Z,6.18
2017-08-28T00:37:17.673Z,6.30
2017-08-28T00:39:46.537Z,5.22
2017-08-28T00:42:16.433Z,6.40
2017-08-28T00:44:45.248Z,5.97
2017-08-28T00:47:13.906Z,5.43
2017-08-28T00:49:42.740Z,6.25
2017-08-28T00:52:11.594Z,6.28
2017-08-28T00:54:40.469Z,5.70
2017-08-28T00:57:09.347Z,4.65
2017-08-28T00:59:38.162Z,6.45
2017-08-28T01:02:07.574Z,6.30
2017-08-28T01:04:36.380Z,6.20
2017-08-28T01:07:05.803Z,6.28
2017-08-28T01:09:34.636Z,6.18
2017-08-28T01:12:04.292Z,6.15
2017-08-28T01:14:33.134Z,5.70
2017-08-28T01:17:02.259Z,6.35
2017-08-28T01:19:31.075Z,5.85
2017-08-28T01:22:00.415Z,5.82
2017-08-28T01:24:29.231Z,6.30
2017-08-28T01:26:58.100Z,5.55
2017-08-28T01:29:27.231Z,5.90
2017-08-28T01:31:56.210Z,5.20
2017-08-28T01:34:25.007Z,5.80
2017-08-28T01:36:53.877Z,5.55
2017-08-28T01:39:22.673Z,5.70
2017-08-28T01:41:51.484Z,6.32
2017-08-28T01:44:20.295Z,7.22
2017-08-28T01:46:49.136Z,7.57
2017-08-28T01:49:17.932Z,5.37
2017-08-28T01:51:46.788Z,6.43
2017-08-28T01:54:15.588Z,6.00
2017-08-28T01:56:44.852Z,5.25
2017-08-28T01:59:14.187Z,5.78
2017-08-28T02:01:44.005Z,6.68
2017-08-28T02:04:12.803Z,6.15
2017-08-28T02:06:42.284Z,5.62
2017-08-28T02:09:11.113Z,5.78
2017-08-28T02:11:39.967Z,5.60
2017-08-28T02:14:08.776Z,5.93
2017-08-28T02:16:37.624Z,5.75
2017-08-28T02:19:06.451Z,5.62
2017-08-28T02:21:36.136Z,6.05
2017-08-28T02:24:04.953Z,6.07
2017-08-28T02:26:33.814Z,5.50
2017-08-28T02:29:02.653Z,5.85
2017-08-28T02:31:31.496Z,5.78
2017-08-28T02:34:00.315Z,6.15
2017-08-28T02:36:29.165Z,5.55
2017-08-28T02:38:58.759Z,5.40
2017-08-28T02:41:27.618Z,5.35
2017-08-28T02:43:56.431Z,5.65
2017-08-28T02:46:25.298Z,5.72
2017-08-28T02:48:53.825Z,5.25
2017-08-28T02:51:22.681Z,5.85
2017-08-28T02:53:52.027Z,6.25
2017-08-28T02:56:20.885Z,6.20
2017-08-28T02:58:49.706Z,5.45
2017-08-28T03:01:18.519Z,5.85
2017-08-28T03:03:47.338Z,5.57
2017-08-28T03:06:16.191Z,6.90
2017-08-28T03:08:44.982Z,6.28
2017-08-28T03:11:13.832Z,6.50
2017-08-28T03:13:42.637Z,5.47
2017-08-28T03:16:11.493Z,5.35
2017-08-28T03:18:40.305Z,6.78
2017-08-28T03:21:09.171Z,7.18
2017-08-28T03:23:37.977Z,6.32
2017-08-28T03:26:06.833Z,6.22
2017-08-28T03:28:35.650Z,6.90
2017-08-28T03:31:04.548Z,6.62
2017-08-28T03:33:33.370Z,6.40
2017-08-28T03:36:02.223Z,6.70
2017-08-28T03:38:30.853Z,7.10
2017-08-28T03:40:59.695Z,6.37
2017-08-28T03:43:28.321Z,6.50
2017-08-28T03:45:56.988Z,6.15
2017-08-28T03:48:25.630Z,6.57
2017-08-28T03:50:54.387Z,7.15
2017-08-28T03:53:22.997Z,6.72
2017-08-28T03:55:51.668Z,7.93
2017-08-28T03:58:20.875Z,7.75
2017-08-28T04:00:49.531Z,7.15
2017-08-28T04:03:18.153Z,7.15
2017-08-28T04:05:46.803Z,6.47
2017-08-28T04:08:15.431Z,7.25
2017-08-28T04:10:44.078Z,6.95
2017-08-28T04:13:12.893Z,6.43
2017-08-28T04:15:41.727Z,6.30
2017-08-28T04:18:10.552Z,6.40
2017-08-28T04:20:39.375Z,7.68
2017-08-28T04:23:08.198Z,7.00
2017-08-28T04:25:37.056Z,7.60
2017-08-28T04:28:05.882Z,7.30
2017-08-28T04:30:34.551Z,8.02
2017-08-28T04:33:03.373Z,7.53
2017-08-28T04:35:32.232Z,7.85
2017-08-28T04:38:01.067Z,8.07
2017-08-28T04:40:29.718Z,6.93
2017-08-28T04:42:58.511Z,7.45
2017-08-28T04:45:26.674Z,7.62
2017-08-28T04:47:55.745Z,7.18
2017-08-28T04:50:24.596Z,7.20
2017-08-28T04:52:53.514Z,8.13
2017-08-28T04:55:22.361Z,9.80
2017-08-28T04:57:51.246Z,7.55
2017-08-28T05:00:19.758Z,7.50
2017-08-28T05:02:48.631Z,8.00
2017-08-28T05:05:17.448Z,8.02
2017-08-28T05:07:46.313Z,8.23
2017-08-28T05:10:15.122Z,7.70
2017-08-28T05:12:43.845Z,7.28
2017-08-28T05:15:12.675Z,8.63
2017-08-28T05:17:41.535Z,8.25
2017-08-28T05:20:10.350Z,8.07
2017-08-28T05:22:39.032Z,8.00
2017-08-28T05:25:07.829Z,7.43
2017-08-28T05:27:36.690Z,8.15
2017-08-28T05:30:06.876Z,8.40
2017-08-28T05:32:35.749Z,9.45
2017-08-28T05:35:04.570Z,8.90
2017-08-28T05:37:34.021Z,8.90
2017-08-28T05:40:02.834Z,8.70
2017-08-28T05:42:31.723Z,8.75
2017-08-28T05:45:00.537Z,7.82
2017-08-28T05:47:29.371Z,9.13
2017-08-28T05:49:58.213Z,7.70
2017-08-28T05:52:26.838Z,8.15
2017-08-28T05:54:55.659Z,8.65
2017-08-28T05:57:24.544Z,8.35
2017-08-28T05:59:54.232Z,7.78
2017-08-28T06:02:23.103Z,6.95
2017-08-28T06:04:51.922Z,8.20
2017-08-28T06:07:20.798Z,8.10
2017-08-28T06:09:49.630Z,7.62
2017-08-28T06:12:18.517Z,7.45
2017-08-28T06:14:47.331Z,7.28
2017-08-28T06:17:16.198Z,8.00
2017-08-28T06:19:45.247Z,8.15
2017-08-28T06:22:14.106Z,8.43
2017-08-28T06:24:42.920Z,7.87
2017-08-28T06:27:11.776Z,8.20
2017-08-28T06:29:40.605Z,7.65
2017-08-28T06:32:09.550Z,7.62
2017-08-28T06:34:38.369Z,8.23
2017-08-28T06:37:07.250Z,7.65
2017-08-28T06:39:36.058Z,8.73
2017-08-28T06:42:04.927Z,7.60
2017-08-28T06:44:33.741Z,7.18
2017-08-28T06:47:02.592Z,6.85
2017-08-28T06:49:31.413Z,6.32
2017-08-28T06:52:00.302Z,6.28
2017-08-28T06:54:29.115Z,6.78
2017-08-28T06:56:58.730Z,5.85
2017-08-28T06:59:27.590Z,6.12
2017-08-28T07:01:56.464Z,6.72
2017-08-28T07:04:25.291Z,5.72
2017-08-28T07:06:54.145Z,5.40
2017-08-28T07:09:22.969Z,5.65
2017-08-28T07:11:51.816Z,5.80
2017-08-28T07:14:20.646Z,5.97
2017-08-28T07:16:50.243Z,5.82
2017-08-28T07:19:19.063Z,6.72
2017-08-28T07:21:49.464Z,6.00
2017-08-28T07:24:17.965Z,4.85
2017-08-28T07:26:46.528Z,5.90
2017-08-28T07:29:15.347Z,5.65
2017-08-28T07:31:44.383Z,6.68
2017-08-28T07:34:16.127Z,5.53
2017-08-28T07:36:44.798Z,6.75
2017-08-28T07:39:14.513Z,5.10
2017-08-28T07:41:43.359Z,6.12
2017-08-28T07:44:11.961Z,6.82
2017-08-28T07:46:40.837Z,6.87
2017-08-28T07:49:09.662Z,6.00
2017-08-28T07:51:38.549Z,5.37
2017-08-28T07:54:07.954Z,4.80
2017-08-28T07:56:36.804Z,5.10
2017-08-28T07:59:05.620Z,5.65
2017-08-28T08:01:34.451Z,6.40
2017-08-28T08:04:03.259Z,5.70
2017-08-28T08:06:32.113Z,5.07
2017-08-28T08:09:00.937Z,5.55
2017-08-28T08:11:29.806Z,6.07
2017-08-28T08:13:58.607Z,5.55
2017-08-28T08:16:26.773Z,4.20
2017-08-28T08:18:55.923Z,5.53
2017-08-28T08:21:24.805Z,5.25
2017-08-28T08:23:53.406Z,4.43
2017-08-28T08:26:23.739Z,4.32
2017-08-28T08:28:52.556Z,3.72
2017-08-28T08:31:21.045Z,3.95
2017-08-28T08:33:55.328Z,3.87
2017-08-28T08:36:24.183Z,4.32
2017-08-28T08:38:52.980Z,4.53
2017-08-28T08:41:21.648Z,4.55
2017-08-28T08:43:50.277Z,3.92
2017-08-28T08:46:19.124Z,3.90
2017-08-28T08:48:47.935Z,4.68
2017-08-28T08:51:16.796Z,3.55
2017-08-28T08:53:46.193Z,5.00
2017-08-28T08:56:15.050Z,3.37
2017-08-28T08:58:43.885Z,2.92
2017-08-28T09:01:12.776Z,3.33
2017-08-28T09:03:41.405Z,3.47
2017-08-28T09:06:10.260Z,3.58
2017-08-28T09:08:39.082Z,3.03
2017-08-28T09:11:07.927Z,2.47
2017-08-28T09:13:37.184Z,2.67
2017-08-28T09:16:05.988Z,2.97
2017-08-28T09:18:34.843Z,3.50
2017-08-28T09:21:04.358Z,3.20
2017-08-28T09:23:33.217Z,2.62
2017-08-28T09:26:02.240Z,2.25
2017-08-28T09:28:31.404Z,2.70
2017-08-28T09:31:00.241Z,3.53
2017-08-28T09:33:29.080Z,3.47
2017-08-28T09:35:57.893Z,3.10
2017-08-28T09:38:26.739Z,3.25
2017-08-28T09:40:55.562Z,2.47
2017-08-28T09:43:24.431Z,3.12
2017-08-28T09:45:57.949Z,3.37
2017-08-28T09:48:27.585Z,2.83
2017-08-28T09:50:56.460Z,3.00
2017-08-28T09:53:25.325Z,2.45
2017-08-28T09:55:55.050Z,2.42
2017-08-28T09:58:23.895Z,2.00
2017-08-28T10:00:52.767Z,2.70
2017-08-28T10:03:21.619Z,3.25
2017-08-28T10:05:50.660Z,1.80
2017-08-28T10:08:19.523Z,2.40
2017-08-28T10:10:48.349Z,2.50
2017-08-28T10:13:17.236Z,2.20
2017-08-28T10:15:46.069Z,2.67
2017-08-28T10:18:14.940Z,2.25
2017-08-28T10:20:43.748Z,2.10
2017-08-28T10:23:12.591Z,2.15
2017-08-28T10:25:41.433Z,1.75
2017-08-28T10:28:10.128Z,2.25
2017-08-28T10:30:38.927Z,1.98
2017-08-28T10:33:07.756Z,2.03
2017-08-28T10:35:36.566Z,2.72
2017-08-28T10:38:05.408Z,1.45
2017-08-28T10:40:34.229Z,1.85
2017-08-28T10:43:03.882Z,1.73
2017-08-28T10:45:32.708Z,1.50
2017-08-28T10:48:01.531Z,1.50
2017-08-28T10:50:30.354Z,1.75
2017-08-28T10:53:05.369Z,1.48
2017-08-28T10:55:34.204Z,1.60
2017-08-28T10:58:04.013Z,2.37
2017-08-28T11:00:33.385Z,2.00
2017-08-28T11:03:03.169Z,1.62
2017-08-28T11:05:31.984Z,2.17
2017-08-28T11:08:00.904Z,1.70
2017-08-28T11:10:29.724Z,2.15
2017-08-28T11:12:58.601Z,1.80
2017-08-28T11:15:28.207Z,1.77
2017-08-28T11:17:57.071Z,2.00
2017-08-28T11:20:25.874Z,1.80
2017-08-28T11:22:54.747Z,2.65
2017-08-28T11:25:23.567Z,2.53
2017-08-28T11:27:52.437Z,1.87
2017-08-28T11:30:21.282Z,1.98
2017-08-28T11:32:50.147Z,2.00
2017-08-28T11:35:18.972Z,2.20
2017-08-28T11:37:47.837Z,1.73
2017-08-28T11:40:16.664Z,1.55
2017-08-28T11:42:45.520Z,2.10
2017-08-28T11:45:14.456Z,1.70
2017-08-28T11:47:43.032Z,1.63
2017-08-28T11:50:11.581Z,1.80
2017-08-28T11:52:40.437Z,1.50
2017-08-28T11:58:04.537Z,1.60
2017-08-28T12:00:40.619Z,1.33
2017-08-28T12:03:09.209Z,1.40
2017-08-28T12:05:37.758Z,1.50
2017-08-28T12:08:07.274Z,1.70
2017-08-28T12:10:36.590Z,1.83
2017-08-28T12:13:05.224Z,1.47
2017-08-28T12:15:34.027Z,1.50
2017-08-28T12:18:02.599Z,2.27
2017-08-28T12:20:31.174Z,1.60
2017-08-28T12:23:00.067Z,1.48
2017-08-28T12:25:28.612Z,2.03
2017-08-28T12:27:57.204Z,1.50
2017-08-28T12:30:25.807Z,1.20
2017-08-28T12:32:55.360Z,2.60
2017-08-28T12:35:23.898Z,2.40
2017-08-28T12:37:52.477Z,1.50
2017-08-28T12:40:21.019Z,1.40
2017-08-28T12:43:00.377Z,1.60
2017-08-28T12:45:28.933Z,1.60
2017-08-28T12:47:57.535Z,2.13
2017-08-28T12:50:26.118Z,1.50
2017-08-28T12:52:55.496Z,1.50
2017-08-28T12:55:24.031Z,1.57
2017-08-28T12:57:52.598Z,1.27
2017-08-28T13:00:21.148Z,1.90
2017-08-28T13:02:49.735Z,2.40
2017-08-28T13:05:18.295Z,2.27
2017-08-28T13:07:46.921Z,1.80
2017-08-28T13:10:15.476Z,1.97
2017-08-28T13:12:44.074Z,1.53
2017-08-28T13:15:12.282Z,1.63
2017-08-28T13:17:40.877Z,1.63
2017-08-28T13:20:09.442Z,1.53
2017-08-28T13:22:38.023Z,1.90
2017-08-28T13:25:06.575Z,2.27
2017-08-28T13:27:35.173Z,2.43
2017-08-28T13:30:03.711Z,2.33
2017-08-28T13:32:33.154Z,1.83
2017-08-28T13:35:01.722Z,1.53
2017-08-28T13:37:31.283Z,2.00
2017-08-28T13:40:00.096Z,2.12
2017-08-28T13:42:28.953Z,1.95
2017-08-28T13:44:57.490Z,1.93
2017-08-28T13:47:26.090Z,1.80
2017-08-28T13:49:55.322Z,1.40
2017-08-28T13:52:27.384Z,1.90
2017-08-28T13:54:56.171Z,2.20
2017-08-28T13:57:26.779Z,1.62
2017-08-28T13:59:56.381Z,1.40
2017-08-28T14:02:25.863Z,1.50
2017-08-28T14:07:26.992Z,1.30
2017-08-28T14:09:55.548Z,1.77
2017-08-28T14:12:24.773Z,2.47
2017-08-28T14:14:53.333Z,1.93
2017-08-28T14:17:21.934Z,2.80
2017-08-28T14:19:50.493Z,1.70
2017-08-28T14:22:19.067Z,1.53
2017-08-28T14:24:47.861Z,1.70
2017-08-28T14:27:16.458Z,1.80
2017-08-28T14:29:45.004Z,1.67
2017-08-28T14:32:13.593Z,1.53
2017-08-28T14:34:42.142Z,1.57
2017-08-28T14:37:10.723Z,1.53
2017-08-28T14:39:39.285Z,1.77
2017-08-28T14:42:08.556Z,1.70
2017-08-28T14:44:37.115Z,1.60
2017-08-28T14:47:06.645Z,1.70
2017-08-28T14:49:35.228Z,1.50
2017-08-28T14:52:05.863Z,2.17
2017-08-28T14:54:37.459Z,1.37
2017-08-28T14:57:06.069Z,1.80
2017-08-28T15:02:14.521Z,2.17
2017-08-28T15:04:43.066Z,1.73
2017-08-28T15:07:11.647Z,1.60
2017-08-28T15:12:14.520Z,1.27
2017-08-28T15:14:43.098Z,2.23
2017-08-28T15:17:12.842Z,2.13
2017-08-28T15:19:41.398Z,1.63
2017-08-28T15:22:10.597Z,1.60
2017-08-28T15:24:39.149Z,1.83
2017-08-28T15:27:08.388Z,1.60
2017-08-28T15:29:36.960Z,1.63
2017-08-28T15:32:06.510Z,1.90
2017-08-28T15:34:35.059Z,1.53
2017-08-28T15:37:03.657Z,1.80
2017-08-28T15:39:32.735Z,2.07
2017-08-28T15:42:01.291Z,1.70
2017-08-28T15:44:30.649Z,4.33
2017-08-28T15:46:59.240Z,7.60
2017-08-28T15:49:28.803Z,11.20
2017-08-28T15:51:57.387Z,3.20
2017-08-28T15:54:25.980Z,2.00
2017-08-28T15:56:54.532Z,2.20
2017-08-28T15:59:24.242Z,2.00
2017-08-28T16:01:53.261Z,1.67
2017-08-28T16:04:22.839Z,1.77
2017-08-28T16:09:26.968Z,1.50
2017-08-28T16:11:55.835Z,1.60
2017-08-28T16:14:24.448Z,1.63
2017-08-28T16:16:53.008Z,1.63
2017-08-28T16:19:21.592Z,1.53
2017-08-28T16:21:50.155Z,2.07
2017-08-28T16:24:18.745Z,1.50
2017-08-28T16:26:47.323Z,1.60
2017-08-28T16:29:16.621Z,1.50
2017-08-28T16:31:45.261Z,2.30
2017-08-28T16:34:13.851Z,1.67
2017-08-28T16:36:42.387Z,1.67
2017-08-28T16:39:11.255Z,1.40
2017-08-28T16:41:40.079Z,1.40
2017-08-28T16:44:08.944Z,2.00
2017-08-28T16:46:37.822Z,1.45
2017-08-28T16:49:06.637Z,1.45
2017-08-28T16:51:35.469Z,1.90
2017-08-28T16:54:04.333Z,1.73
2017-08-28T16:56:33.141Z,1.20
2017-08-28T16:59:02.021Z,1.60
2017-08-28T17:01:30.830Z,1.52
2017-08-28T17:03:59.686Z,1.70
2017-08-28T17:06:28.502Z,1.92
2017-08-28T17:08:57.377Z,1.70
2017-08-28T17:11:26.191Z,1.77
2017-08-28T17:13:55.072Z,2.22
2017-08-28T17:16:23.903Z,1.40
2017-08-28T17:18:52.756Z,1.60
2017-08-28T17:21:21.583Z,2.15
2017-08-28T17:23:55.229Z,1.83
2017-08-28T17:26:24.050Z,1.87
2017-08-28T17:28:53.015Z,1.83
2017-08-28T17:31:21.832Z,2.45
2017-08-28T17:33:50.701Z,2.25
2017-08-28T17:36:19.525Z,2.08
2017-08-28T17:38:48.366Z,1.95
2017-08-28T17:41:17.181Z,2.67
2017-08-28T17:43:46.053Z,1.90
2017-08-28T17:46:14.879Z,2.03
2017-08-28T17:48:44.069Z,1.83
2017-08-28T17:51:12.875Z,2.00
2017-08-28T17:53:41.715Z,2.15
2017-08-28T17:56:10.538Z,2.03
2017-08-28T17:58:39.424Z,2.20
2017-08-28T18:01:08.255Z,2.45
2017-08-28T18:03:37.120Z,2.20
2017-08-28T18:06:05.941Z,2.28
2017-08-28T18:08:34.841Z,2.12
2017-08-28T18:11:03.700Z,2.25
2017-08-28T18:13:32.548Z,2.03
2017-08-28T18:16:01.376Z,1.60
2017-08-28T18:18:30.229Z,1.85
2017-08-28T18:20:59.059Z,2.40
2017-08-28T18:23:28.788Z,2.62
2017-08-28T18:25:57.467Z,1.70
2017-08-28T18:28:26.307Z,1.65
2017-08-28T18:30:55.205Z,2.55
2017-08-28T18:33:24.127Z,2.58
2017-08-28T18:35:52.950Z,2.50
2017-08-28T18:38:21.858Z,3.33
2017-08-28T18:40:50.859Z,2.25
2017-08-28T18:43:19.753Z,2.30
2017-08-28T18:45:48.601Z,3.28
2017-08-28T18:48:17.484Z,2.35
2017-08-28T18:50:46.415Z,2.28
2017-08-28T18:53:15.274Z,2.35
2017-08-28T18:55:44.141Z,2.70
2017-08-28T18:58:12.957Z,3.00
2017-08-28T19:00:42.576Z,3.30
2017-08-28T19:03:11.397Z,2.50
2017-08-28T19:05:40.257Z,2.50
2017-08-28T19:08:09.078Z,2.20
2017-08-28T19:10:37.923Z,3.22
2017-08-28T19:13:06.753Z,2.78
2017-08-28T19:15:35.429Z,2.70
2017-08-28T19:18:04.079Z,3.40
2017-08-28T19:20:32.933Z,3.00
2017-08-28T19:23:01.761Z,3.20
2017-08-28T19:25:31.057Z,3.75
2017-08-28T19:27:59.856Z,3.20
2017-08-28T19:30:28.763Z,3.28
2017-08-28T19:32:57.586Z,3.03
2017-08-28T19:35:26.426Z,3.65
2017-08-28T19:37:55.235Z,3.78
2017-08-28T19:40:23.890Z,3.65
2017-08-28T19:42:52.705Z,4.18
2017-08-28T19:45:21.565Z,3.95
2017-08-28T19:47:50.373Z,4.05
2017-08-28T19:50:19.223Z,4.05
2017-08-28T19:52:48.030Z,4.90
2017-08-28T19:55:17.089Z,3.62
2017-08-28T19:57:45.888Z,4.03
2017-08-28T20:00:14.688Z,4.10
2017-08-28T20:02:49.002Z,4.65
2017-08-28T20:05:17.836Z,4.72
2017-08-28T20:07:47.093Z,4.37
2017-08-28T20:10:15.906Z,4.10
2017-08-28T20:12:44.809Z,4.50
2017-08-28T20:15:13.433Z,5.10
2017-08-28T20:17:42.568Z,4.40
2017-08-28T20:20:12.437Z,4.18
2017-08-28T20:22:41.533Z,5.50
2017-08-28T20:25:10.355Z,5.10
2017-08-28T20:27:39.201Z,5.18
2017-08-28T20:30:08.008Z,5.72
2017-08-28T20:32:36.873Z,4.55
2017-08-28T20:35:05.720Z,4.95
2017-08-28T20:37:34.543Z,3.55
2017-08-28T20:40:03.386Z,3.87
2017-08-28T20:42:32.202Z,4.32
2017-08-28T20:45:01.057Z,4.65
2017-08-28T20:47:29.901Z,4.45
2017-08-28T20:49:58.747Z,4.32
2017-08-28T20:52:27.572Z,3.83
2017-08-28T20:54:56.426Z,3.95
2017-08-28T20:57:25.242Z,3.50
2017-08-28T20:59:54.089Z,3.92
2017-08-28T21:02:22.931Z,3.50
2017-08-28T21:04:52.399Z,3.40
2017-08-28T21:07:21.214Z,3.75
2017-08-28T21:09:49.971Z,3.67
2017-08-28T21:12:18.770Z,4.18
2017-08-28T21:14:47.618Z,3.35
2017-08-28T21:17:16.432Z,4.00
2017-08-28T21:19:45.301Z,3.62
2017-08-28T21:22:14.109Z,3.90
2017-08-28T21:24:42.951Z,3.92
2017-08-28T21:27:11.751Z,3.60
2017-08-28T21:29:40.598Z,4.60
2017-08-28T21:32:09.418Z,3.22
2017-08-28T21:34:38.265Z,3.60
2017-08-28T21:37:07.067Z,3.37
2017-08-28T21:39:35.930Z,4.57
2017-08-28T21:42:04.742Z,4.28
2017-08-28T21:44:33.576Z,4.28
2017-08-28T21:47:02.403Z,4.40
2017-08-28T21:49:31.256Z,4.35
2017-08-28T21:52:00.079Z,4.15
2017-08-28T21:54:28.945Z,5.03
2017-08-28T21:56:57.749Z,4.60
2017-08-28T21:59:26.601Z,5.00
2017-08-28T22:01:55.404Z,4.57
2017-08-28T22:04:24.269Z,5.32
2017-08-28T22:06:53.729Z,3.87
2017-08-28T22:09:22.590Z,4.78
2017-08-28T22:11:51.399Z,4.60
2017-08-28T22:14:20.912Z,4.95
2017-08-28T22:16:49.756Z,5.43
2017-08-28T22:19:18.621Z,4.12
2017-08-28T22:21:47.422Z,4.43
2017-08-28T22:24:16.277Z,4.47
2017-08-28T22:26:45.116Z,4.62
2017-08-28T22:29:13.969Z,4.00
2017-08-28T22:31:42.776Z,4.43
2017-08-28T22:34:11.690Z,4.95
2017-08-28T22:36:40.524Z,4.40
2017-08-28T22:39:09.386Z,4.53
2017-08-28T22:41:38.208Z,4.03
2017-08-28T22:44:07.068Z,4.50
2017-08-28T22:46:35.877Z,4.70
2017-08-28T22:49:04.792Z,4.57
2017-08-28T22:51:33.618Z,4.32
2017-08-28T22:54:02.468Z,4.50
2017-08-28T22:56:31.269Z,4.00
2017-08-28T22:59:00.121Z,4.85
2017-08-28T23:01:28.916Z,4.70
2017-08-28T23:03:58.527Z,4.05
2017-08-28T23:06:27.373Z,4.57
2017-08-28T23:08:56.281Z,4.37
2017-08-28T23:11:25.764Z,4.45
2017-08-28T23:13:54.582Z,5.12
2017-08-28T23:16:23.452Z,5.00
2017-08-28T23:18:52.256Z,5.45
2017-08-28T23:21:21.062Z,4.72
2017-08-28T23:23:49.868Z,4.50
2017-08-28T23:26:18.733Z,5.40
2017-08-28T23:28:47.541Z,4.87
2017-08-28T23:31:16.397Z,5.28
2017-08-28T23:33:45.751Z,5.03
2017-08-28T23:36:15.017Z,4.53
2017-08-28T23:38:43.817Z,5.25
2017-08-28T23:41:12.686Z,5.10
2017-08-28T23:43:41.498Z,5.40
2017-08-28T23:46:10.372Z,5.20
2017-08-28T23:48:40.037Z,6.10
2017-08-28T23:51:08.898Z,5.22
2017-08-28T23:53:37.710Z,4.75
2017-08-28T23:56:06.562Z,5.25
2017-08-28T23:58:35.375Z,4.82
